createdAt,value
2022-11-18T00:03:11.701Z,19.43
2022-11-18T00:08:16.860Z,21.20
2022-11-18T00:13:36.783Z,19.70
2022-11-18T00:18:42.647Z,20.90
2022-11-18T00:23:47.707Z,19.60
2022-11-18T00:28:55.210Z,21.03
2022-11-18T00:34:00.610Z,19.97
2022-11-18T00:39:07.716Z,21.00
2022-11-18T00:44:15.401Z,21.23
2022-11-18T00:49:21.052Z,19.97
2022-11-18T00:54:26.577Z,20.10
2022-11-18T00:59:34.241Z,20.40
2022-11-18T01:04:39.197Z,20.60
2022-11-18T01:09:44.221Z,19.20
2022-11-18T01:14:51.971Z,20.17
2022-11-18T01:19:57.013Z,19.73
2022-11-18T01:25:01.954Z,19.60
2022-11-18T01:30:11.427Z,18.50
2022-11-18T01:35:17.827Z,21.17
2022-11-18T01:40:24.522Z,20.87
2022-11-18T01:45:36.717Z,19.50
2022-11-18T01:50:47.784Z,18.37
2022-11-18T01:55:57.767Z,18.10
2022-11-18T02:01:06.478Z,18.07
2022-11-18T02:06:14.079Z,18.23
2022-11-18T02:11:31.830Z,18.13
2022-11-18T02:16:51.125Z,18.60
2022-11-18T02:22:11.157Z,19.93
2022-11-18T02:27:43.512Z,20.97
2022-11-18T02:32:59.378Z,20.70
2022-11-18T02:38:10.276Z,19.73
2022-11-18T02:43:21.380Z,21.67
2022-11-18T02:48:32.951Z,20.37
2022-11-18T02:53:43.534Z,21.20
2022-11-18T02:58:48.497Z,22.13
2022-11-18T03:03:57.125Z,20.97
2022-11-18T03:09:13.289Z,19.97
2022-11-18T03:14:26.230Z,20.53
2022-11-18T03:19:48.875Z,21.00
2022-11-18T03:25:02.908Z,19.87
2022-11-18T03:30:12.401Z,19.60
2022-11-18T03:35:24.918Z,20.77
2022-11-18T03:40:33.813Z,19.33
2022-11-18T03:45:44.768Z,19.60
2022-11-18T03:51:01.118Z,18.00
2022-11-18T03:56:17.214Z,18.57
2022-11-18T04:01:28.508Z,18.90
2022-11-18T04:06:41.478Z,19.87
2022-11-18T04:12:06.450Z,17.70
2022-11-18T04:17:13.585Z,17.30
2022-11-18T04:22:25.143Z,18.50
2022-11-18T04:27:30.019Z,17.90
2022-11-18T04:32:35.139Z,18.77
2022-11-18T04:37:42.825Z,18.13
2022-11-18T04:42:48.048Z,19.77
2022-11-18T04:47:52.900Z,21.63
2022-11-18T04:53:00.678Z,20.30
2022-11-18T04:58:05.753Z,19.20
2022-11-18T05:03:10.869Z,18.47
2022-11-18T05:08:18.492Z,19.77
2022-11-18T05:13:23.868Z,21.43
2022-11-18T05:18:30.856Z,18.53
2022-11-18T05:23:40.180Z,17.00
2022-11-18T05:28:45.469Z,17.47
2022-11-18T05:33:50.639Z,17.77
2022-11-18T05:39:01.080Z,16.53
2022-11-18T05:44:08.691Z,16.37
2022-11-18T05:49:13.770Z,16.37
2022-11-18T05:54:23.621Z,16.33
2022-11-18T05:59:30.094Z,18.80
2022-11-18T06:04:40.911Z,18.77
2022-11-18T06:09:53.088Z,19.73
2022-11-18T06:15:04.215Z,17.03
2022-11-18T06:20:13.258Z,18.43
2022-11-18T06:25:21.275Z,16.83
2022-11-18T06:30:28.958Z,18.43
2022-11-18T06:35:33.907Z,18.53
2022-11-18T06:40:55.393Z,19.17
2022-11-18T06:46:17.029Z,16.57
2022-11-18T06:51:22.473Z,16.27
2022-11-18T06:56:30.171Z,16.43
2022-11-18T07:01:38.616Z,16.87
2022-11-18T07:06:49.048Z,17.70
2022-11-18T07:11:57.002Z,16.30
2022-11-18T07:17:05.532Z,17.17
2022-11-18T07:22:10.688Z,16.70
2022-11-18T07:27:18.523Z,16.77
2022-11-18T07:32:24.795Z,15.13
2022-11-18T07:37:30.479Z,13.70
2022-11-18T07:42:42.901Z,14.63
2022-11-18T07:48:00.958Z,14.13
2022-11-18T07:53:06.197Z,15.63
2022-11-18T07:58:15.813Z,17.63
2022-11-18T08:03:22.747Z,17.63
2022-11-18T08:08:27.947Z,19.20
2022-11-18T08:13:36.241Z,20.23
2022-11-18T08:18:44.047Z,19.00
2022-11-18T08:23:54.657Z,19.67
2022-11-18T08:29:04.646Z,20.13
2022-11-18T08:34:15.123Z,19.80
2022-11-18T08:39:20.469Z,20.90
2022-11-18T08:44:33.827Z,18.87
2022-11-18T08:49:38.700Z,17.37
2022-11-18T08:54:43.765Z,17.30
2022-11-18T08:59:51.242Z,19.13
2022-11-18T09:04:56.999Z,18.73
2022-11-18T09:10:04.521Z,20.27
2022-11-18T09:15:17.480Z,20.80
2022-11-18T09:20:23.043Z,20.90
2022-11-18T09:25:28.337Z,23.20
2022-11-18T09:30:36.603Z,23.07
2022-11-18T09:35:45.265Z,23.90
2022-11-18T09:41:02.783Z,23.97
2022-11-18T09:46:26.910Z,21.73
2022-11-18T09:51:38.528Z,22.50
2022-11-18T09:56:48.365Z,22.43
2022-11-18T10:01:59.526Z,21.80
2022-11-18T10:07:14.179Z,18.63
2022-11-18T10:12:28.521Z,18.20
2022-11-18T10:17:52.148Z,19.00
2022-11-18T10:23:01.475Z,20.60
2022-11-18T10:28:22.505Z,19.67
2022-11-18T10:33:32.715Z,17.20
2022-11-18T10:38:45.547Z,17.70
2022-11-18T10:43:55.616Z,17.37
2022-11-18T10:49:17.420Z,19.10
2022-11-18T10:54:26.349Z,19.47
2022-11-18T10:59:34.452Z,21.37
2022-11-18T11:04:43.529Z,21.13
2022-11-18T11:10:03.445Z,23.27
2022-11-18T11:15:14.009Z,22.33
2022-11-18T11:20:24.581Z,22.07
2022-11-18T11:31:21.347Z,23.37
2022-11-18T11:36:43.249Z,24.53
2022-11-18T11:42:00.017Z,24.63
2022-11-18T11:47:40.207Z,23.73
2022-11-18T11:52:59.538Z,23.70
2022-11-18T11:58:45.053Z,24.40
2022-11-18T12:03:56.782Z,23.07
2022-11-18T12:09:13.314Z,23.23
2022-11-18T12:14:32.926Z,24.50
2022-11-18T12:19:42.087Z,25.10
2022-11-18T12:24:51.996Z,24.17
2022-11-18T12:30:01.607Z,25.57
2022-11-18T12:35:25.690Z,27.60
2022-11-18T12:40:47.205Z,30.57
2022-11-18T12:46:00.628Z,29.53
2022-11-18T12:51:14.692Z,32.97
2022-11-18T12:56:27.977Z,28.80
2022-11-18T13:01:35.504Z,27.80
2022-11-18T13:06:45.077Z,24.50
2022-11-18T13:11:57.636Z,23.80
2022-11-18T13:17:22.819Z,25.97
2022-11-18T13:22:41.701Z,26.63
2022-11-18T13:27:55.711Z,26.07
2022-11-18T13:33:02.577Z,26.40
2022-11-18T13:38:10.250Z,28.27
2022-11-18T13:43:28.967Z,24.70
2022-11-18T13:48:39.022Z,24.10
2022-11-18T13:53:47.753Z,25.70
2022-11-18T13:59:18.037Z,25.03
2022-11-18T14:04:26.362Z,24.40
2022-11-18T14:09:34.569Z,26.23
2022-11-18T14:14:45.405Z,26.83
2022-11-18T14:19:52.736Z,26.63
2022-11-18T14:25:00.323Z,27.27
2022-11-18T14:30:32.824Z,26.63
2022-11-18T14:35:38.181Z,26.37
2022-11-18T14:40:46.753Z,23.70
2022-11-18T14:45:59.906Z,26.03
2022-11-18T14:51:05.152Z,24.63
2022-11-18T14:56:18.316Z,25.83
2022-11-18T15:01:30.479Z,27.57
2022-11-18T15:06:36.433Z,25.73
2022-11-18T15:11:42.026Z,26.43
2022-11-18T15:16:52.090Z,29.90
2022-11-18T15:21:56.989Z,29.00
2022-11-18T15:27:06.748Z,27.13
2022-11-18T15:32:16.222Z,28.43
2022-11-18T15:37:21.276Z,27.20
2022-11-18T15:42:26.262Z,27.53
2022-11-18T15:47:33.811Z,28.73
2022-11-18T15:52:38.997Z,29.80
2022-11-18T15:57:43.997Z,27.13
2022-11-18T16:02:54.737Z,27.83
2022-11-18T16:07:59.790Z,28.67
2022-11-18T16:13:04.891Z,26.93
2022-11-18T16:18:13.083Z,26.47
2022-11-18T16:23:18.074Z,22.73
2022-11-18T16:28:23.022Z,24.80
2022-11-18T16:33:30.719Z,23.97
2022-11-18T16:38:43.607Z,22.60
2022-11-18T16:43:51.893Z,23.07
2022-11-18T16:49:00.889Z,22.47
2022-11-18T16:54:07.867Z,21.00
2022-11-18T16:59:16.761Z,21.47
2022-11-18T17:04:25.616Z,17.27
2022-11-18T17:09:34.064Z,18.53
2022-11-18T17:14:40.524Z,17.67
2022-11-18T17:19:51.730Z,15.70
2022-11-18T17:24:59.729Z,14.60
2022-11-18T17:30:10.282Z,15.33
2022-11-18T17:35:21.272Z,13.63
2022-11-18T17:40:26.269Z,13.47
2022-11-18T17:45:31.427Z,14.10
2022-11-18T17:50:39.031Z,12.43
2022-11-18T17:55:44.273Z,11.10
2022-11-18T18:00:49.192Z,9.87
2022-11-18T18:06:04.216Z,10.83
2022-11-18T18:11:15.174Z,10.20
2022-11-18T18:16:20.632Z,10.53
2022-11-18T18:21:28.686Z,8.40
2022-11-18T18:26:34.446Z,8.87
2022-11-18T18:31:39.779Z,8.87
2022-11-18T18:36:49.701Z,8.50
2022-11-18T18:41:54.779Z,7.63
2022-11-18T18:46:59.803Z,7.67
2022-11-18T18:52:10.081Z,7.53
2022-11-18T18:57:17.953Z,8.37
2022-11-18T19:02:22.961Z,8.03
2022-11-18T19:07:31.511Z,8.47
2022-11-18T19:12:51.737Z,7.80
2022-11-18T19:17:56.826Z,7.70
2022-11-18T19:23:10.119Z,8.07
2022-11-18T19:28:15.790Z,8.67
2022-11-18T19:33:20.837Z,8.93
2022-11-18T19:38:28.563Z,8.33
2022-11-18T19:43:34.421Z,8.50
2022-11-18T19:48:39.423Z,7.53
2022-11-18T19:53:46.948Z,7.70
2022-11-18T19:58:54.870Z,8.57
2022-11-18T20:04:01.907Z,8.10
2022-11-18T20:09:16.731Z,8.20
2022-11-18T20:14:25.539Z,8.20
2022-11-18T20:19:30.955Z,8.53
2022-11-18T20:24:38.766Z,9.37
2022-11-18T20:29:46.214Z,8.10
2022-11-18T20:34:51.451Z,8.73
2022-11-18T20:39:59.167Z,9.23
2022-11-18T20:45:04.430Z,8.97
2022-11-18T20:50:10.835Z,8.33
2022-11-18T20:55:18.657Z,8.80
2022-11-18T21:00:23.762Z,8.53
2022-11-18T21:05:31.144Z,7.93
2022-11-18T21:10:39.527Z,8.50
2022-11-18T21:15:48.162Z,9.40
2022-11-18T21:21:05.680Z,8.80
2022-11-18T21:26:15.681Z,8.20
2022-11-18T21:31:23.180Z,9.63
2022-11-18T21:36:30.561Z,9.33
2022-11-18T21:41:38.728Z,9.20
2022-11-18T21:46:47.411Z,9.73
2022-11-18T21:51:52.273Z,9.43
2022-11-18T21:56:59.823Z,9.17
2022-11-18T22:02:04.962Z,9.80
2022-11-18T22:07:10.068Z,9.57
2022-11-18T22:12:17.764Z,10.00
2022-11-18T22:17:22.725Z,9.87
2022-11-18T22:22:27.665Z,10.77
2022-11-18T22:27:36.291Z,9.87
2022-11-18T22:32:43.536Z,9.20
2022-11-18T22:37:48.397Z,11.00
2022-11-18T22:42:57.380Z,10.53
2022-11-18T22:48:03.371Z,9.57
2022-11-18T22:53:08.251Z,10.27
2022-11-18T22:58:15.878Z,9.50
2022-11-18T23:03:20.884Z,9.47
2022-11-18T23:08:27.106Z,10.87
2022-11-18T23:13:47.531Z,9.90
2022-11-18T23:18:53.032Z,10.33
2022-11-18T23:23:57.983Z,10.20
2022-11-18T23:29:05.595Z,10.97
2022-11-18T23:34:10.830Z,11.33
2022-11-18T23:39:16.121Z,10.80
2022-11-18T23:44:44.301Z,10.40
2022-11-18T23:49:49.701Z,10.43
2022-11-18T23:54:54.853Z,10.00
